Time;durP1;ratioP1;P1;durP2;ratioP2;P2;SDS_P1;SDS_P2;PMS_P1;PMS_P2;Temp;Humidity;BMP_temperature;BMP_pressure;BME280_temperature;BME280_humidity;BME280_pressure;Samples;Min_cycle;Max_cycle;Signal;HPM_P1;HPM_P2
2023/10/22 00:02:22;;;;;;;;;;;;;;;14.16;49.13;99622.97;4963472;27;98899;-66
2023/10/22 00:04:48;;;;;;;;;;;;;;;14.15;49.05;99617.88;5016701;27;97886;-77
2023/10/22 00:07:14;;;;;;;;;;;;;;;14.15;49.01;99617.88;5017429;27;98393;-77
2023/10/22 00:09:41;;;;;;;;;;;;;;;14.14;49.28;99627.09;4980863;27;97922;-77
2023/10/22 00:12:07;;;;;;;;;;;;;;;14.16;49.38;99624.91;5012209;27;99582;-67
2023/10/22 00:14:35;;;;;;;;;;;;;;;14.15;49.07;99634.94;4997528;27;98414;-67
2023/10/22 00:17:03;;;;;;;;;;;;;;;14.15;49.43;99626.81;4968424;27;101082;-67
2023/10/22 00:19:29;;;;;;;;;;;;;;;14.15;49.43;99629.53;4983838;27;98016;-67
2023/10/22 00:21:55;;;;;;;;;;;;;;;14.14;49.44;99638.75;4996520;27;100994;-77
2023/10/22 00:24:22;;;;;;;;;;;;;;;14.15;49.55;99640.38;5002403;27;99606;-77
2023/10/22 00:26:49;;;;;;;;;;;;;;;14.14;49.18;99640.66;4997965;27;99431;-78
2023/10/22 00:29:16;;;;;;;;;;;;;;;14.14;49.41;99640.66;4995005;27;98733;-79
2023/10/22 00:31:43;;;;;;;;;;;;;;;14.13;49.34;99639.06;4987357;27;98153;-79
2023/10/22 00:34:09;;;;;;;;;;;;;;;14.13;49.54;99642.56;4969505;27;98552;-78
2023/10/22 00:36:35;;;;;;;;;;;;;;;14.12;49.40;99640.97;4997096;27;102511;-67
2023/10/22 00:39:01;;;;;;;;;;;;;;;14.13;49.33;99644.47;5014203;27;98406;-68
2023/10/22 00:41:28;;;;;;;;;;;;;;;14.12;49.04;99640.97;4982504;27;99771;-78
2023/10/22 00:43:54;;;;;;;;;;;;;;;14.13;49.48;99658.03;5000809;27;98017;-78
2023/10/22 00:46:22;;;;;;;;;;;;;;;14.12;49.27;99656.44;4981204;27;127254;-68
2023/10/22 00:48:48;;;;;;;;;;;;;;;14.12;49.18;99653.72;4996709;27;100082;-78
2023/10/22 00:51:15;;;;;;;;;;;;;;;14.11;49.50;99650.22;4967141;27;98645;-78
2023/10/22 00:53:42;;;;;;;;;;;;;;;14.11;49.50;99654.81;4998507;27;98210;-76
2023/10/22 00:56:09;;;;;;;;;;;;;;;14.10;49.14;99637.75;4982116;27;98324;-78
2023/10/22 00:58:36;;;;;;;;;;;;;;;14.10;49.48;99645.91;4980680;27;98506;-78
2023/10/22 01:01:06;;;;;;;;;;;;;;;14.11;49.29;99652.94;4996112;27;99662;-68
2023/10/22 01:03:35;;;;;;;;;;;;;;;14.10;49.21;99659.44;4983710;27;97916;-79
2023/10/22 01:06:04;;;;;;;;;;;;;;;14.10;49.07;99653.22;4997904;27;99758;-78
2023/10/22 01:08:33;;;;;;;;;;;;;;;14.11;49.43;99665.66;4984906;27;98203;-78
2023/10/22 01:11:09;;;;;;;;;;;;;;;14.10;49.16;99664.06;4994162;27;98944;-78
2023/10/22 01:13:37;;;;;;;;;;;;;;;14.10;49.42;99664.88;4999690;27;98121;-68
2023/10/22 01:16:04;;;;;;;;;;;;;;;14.09;49.24;99663.28;4984227;27;100077;-79
2023/10/22 01:18:30;;;;;;;;;;;;;;;14.10;49.30;99666.78;4982584;27;98135;-68
2023/10/22 01:20:57;;;;;;;;;;;;;;;14.09;49.37;99660.56;5000845;27;99514;-68
2023/10/22 01:23:23;;;;;;;;;;;;;;;14.09;49.57;99662.47;4983674;27;100271;-68
2023/10/22 01:25:50;;;;;;;;;;;;;;;14.10;49.23;99664.06;4984740;27;98017;-67
2023/10/22 01:28:16;;;;;;;;;;;;;;;14.09;49.37;99660.56;4965586;27;98360;-78
2023/10/22 01:30:43;;;;;;;;;;;;;;;14.09;49.17;99662.47;5012685;27;116123;-67
2023/10/22 01:33:09;;;;;;;;;;;;;;;14.09;49.22;99665.19;4996746;27;97990;-67
2023/10/22 01:35:35;;;;;;;;;;;;;;;14.08;49.20;99664.38;4997173;27;98862;-77
2023/10/22 01:38:02;;;;;;;;;;;;;;;14.07;49.58;99662.78;4966775;27;98239;-77
2023/10/22 01:40:29;;;;;;;;;;;;;;;14.07;49.62;99670.94;5000670;27;98387;-77
2023/10/22 01:42:55;;;;;;;;;;;;;;;14.06;49.33;99672.00;4999575;27;98006;-77
2023/10/22 01:45:22;;;;;;;;;;;;;;;14.07;49.16;99670.09;4991955;27;99898;-76
2023/10/22 01:47:48;;;;;;;;;;;;;;;14.06;49.34;99672.00;4966418;27;100058;-67
2023/10/22 01:50:15;;;;;;;;;;;;;;;14.05;49.33;99678.53;4969189;27;98307;-77
2023/10/22 01:52:42;;;;;;;;;;;;;;;14.05;49.37;99683.97;4967327;27;98177;-67
2023/10/22 01:55:09;;;;;;;;;;;;;;;14.05;49.51;99680.47;4984508;27;99097;-67
2023/10/22 01:57:36;;;;;;;;;;;;;;;14.05;49.33;99692.09;4977903;27;98300;-67
2023/10/22 02:00:03;;;;;;;;;;;;;;;14.05;49.48;99692.09;4978590;27;98740;-77
2023/10/22 02:02:29;;;;;;;;;;;;;;;14.06;49.37;99696.41;5016274;27;98358;-76
2023/10/22 02:04:55;;;;;;;;;;;;;;;14.05;49.64;99694.00;4969507;27;99636;-67
2023/10/22 02:07:22;;;;;;;;;;;;;;;14.06;49.23;99699.09;4995402;27;99028;-66
2023/10/22 02:09:48;;;;;;;;;;;;;;;14.06;49.49;99692.91;4984468;27;98059;-76
2023/10/22 02:12:16;;;;;;;;;;;;;;;14.05;49.53;99692.09;4969303;27;105610;-77
2023/10/22 02:14:42;;;;;;;;;;;;;;;14.05;49.70;99694.81;4995985;27;99990;-74
2023/10/22 02:17:09;;;;;;;;;;;;;;;14.06;49.26;99690.97;4967799;27;98313;-67
2023/10/22 02:19:36;;;;;;;;;;;;;;;14.05;49.46;99697.50;4969281;27;98562;-77
2023/10/22 02:22:04;;;;;;;;;;;;;;;14.06;49.44;99701.81;4999979;27;98650;-67
2023/10/22 02:24:30;;;;;;;;;;;;;;;14.07;49.56;99713.47;4970611;27;100223;-76
2023/10/22 02:26:56;;;;;;;;;;;;;;;14.05;49.61;99705.66;4968536;27;98148;-67
2023/10/22 02:29:23;;;;;;;;;;;;;;;14.06;49.50;99704.53;4984881;27;98520;-67
2023/10/22 02:31:50;;;;;;;;;;;;;;;14.06;49.55;99707.25;4977636;27;99314;-66
2023/10/22 02:34:16;;;;;;;;;;;;;;;14.06;49.31;99714.56;4969046;27;100668;-77
2023/10/22 02:36:44;;;;;;;;;;;;;;;14.05;49.72;99718.41;5017993;27;127885;-67
2023/10/22 02:39:12;;;;;;;;;;;;;;;14.06;49.72;99725.41;4984970;27;97829;-67
2023/10/22 02:41:40;;;;;;;;;;;;;;;14.06;49.69;99725.41;4985083;27;100787;-68
2023/10/22 02:44:06;;;;;;;;;;;;;;;14.06;49.56;99725.41;4982238;27;98027;-67
2023/10/22 02:46:33;;;;;;;;;;;;;;;14.07;49.36;99724.28;5003091;27;100057;-67
2023/10/22 02:48:59;;;;;;;;;;;;;;;14.05;49.71;99716.47;4986405;27;99675;-79
2023/10/22 02:51:25;;;;;;;;;;;;;;;14.06;49.60;99712.66;5001889;27;98023;-68
2023/10/22 02:53:52;;;;;;;;;;;;;;;14.06;49.68;99718.06;4979263;27;99339;-79
2023/10/22 02:56:18;;;;;;;;;;;;;;;14.06;49.71;99715.38;4997994;27;98771;-79
2023/10/22 02:58:44;;;;;;;;;;;;;;;14.06;49.69;99722.69;4972509;27;98722;-79
2023/10/22 03:01:11;;;;;;;;;;;;;;;14.06;49.72;99723.50;4991715;27;98217;-79
2023/10/22 03:03:41;;;;;;;;;;;;;;;14.06;49.71;99723.50;4972366;27;99805;-72
2023/10/22 03:06:10;;;;;;;;;;;;;;;14.05;49.39;99718.41;4985745;27;98931;-67
2023/10/22 03:08:38;;;;;;;;;;;;;;;14.05;49.70;99724.63;5001772;27;98777;-78
2023/10/22 03:11:05;;;;;;;;;;;;;;;14.05;49.81;99723.81;5000351;27;98155;-68
2023/10/22 03:13:31;;;;;;;;;;;;;;;14.05;49.55;99723.81;4969793;27;98174;-79
2023/10/22 03:16:05;;;;;;;;;;;;;;;14.04;49.69;99730.34;4968032;27;99830;-68
2023/10/22 03:18:32;;;;;;;;;;;;;;;14.04;49.58;99735.78;4970555;27;99767;-78
2023/10/22 03:20:59;;;;;;;;;;;;;;;14.04;49.74;99735.78;5000869;27;99557;-78
2023/10/22 03:23:26;;;;;;;;;;;;;;;14.04;49.67;99733.06;5003646;27;98189;-67
2023/10/22 03:25:52;;;;;;;;;;;;;;;14.03;49.73;99728.72;4986674;27;98034;-77
2023/10/22 03:28:18;;;;;;;;;;;;;;;14.04;49.63;99730.34;5000505;27;98650;-67
2023/10/22 03:30:45;;;;;;;;;;;;;;;14.02;49.40;99727.94;4987154;27;99908;-67
2023/10/22 03:33:11;;;;;;;;;;;;;;;14.02;49.81;99730.66;4973482;27;98196;-68
2023/10/22 03:35:37;;;;;;;;;;;;;;;14.02;49.75;99733.34;4967716;27;100054;-77
2023/10/22 03:38:04;;;;;;;;;;;;;;;14.01;49.53;99734.47;4979561;27;98070;-67
2023/10/22 03:40:33;;;;;;;;;;;;;;;14.02;49.37;99737.97;4969264;27;99500;-67
2023/10/22 03:42:59;;;;;;;;;;;;;;;14.00;49.63;99741.78;4999278;27;98217;-67
2023/10/22 03:45:26;;;;;;;;;;;;;;;14.01;49.79;99742.59;4985773;27;98416;-78
2023/10/22 03:47:52;;;;;;;;;;;;;;;13.99;49.60;99734.78;4985992;27;97787;-77
2023/10/22 03:50:19;;;;;;;;;;;;;;;13.99;49.83;99739.41;4965655;27;98234;-67
2023/10/22 03:52:45;;;;;;;;;;;;;;;13.98;49.55;99741.28;5002524;27;98221;-77
2023/10/22 03:55:12;;;;;;;;;;;;;;;13.99;49.43;99740.22;4998905;27;98208;-78
2023/10/22 03:57:39;;;;;;;;;;;;;;;13.98;49.48;99738.59;4999876;27;99237;-77
2023/10/22 04:00:07;;;;;;;;;;;;;;;13.98;49.66;99740.50;5016552;27;97856;-67
2023/10/22 04:02:33;;;;;;;;;;;;;;;13.96;49.69;99735.38;5000961;27;98763;-67
2023/10/22 04:04:59;;;;;;;;;;;;;;;13.96;49.53;99745.44;4988424;27;98032;-67
2023/10/22 04:07:25;;;;;;;;;;;;;;;13.96;49.73;99737.31;4988998;27;97935;-67
2023/10/22 04:09:51;;;;;;;;;;;;;;;13.96;49.56;99738.09;5013382;27;98313;-78
2023/10/22 04:12:18;;;;;;;;;;;;;;;13.96;49.55;99745.44;5000455;27;108492;-67
2023/10/22 04:14:44;;;;;;;;;;;;;;;13.94;49.60;99740.31;4983340;27;99590;-77
2023/10/22 04:17:11;;;;;;;;;;;;;;;13.94;49.87;99753.84;4980506;27;98679;-67
2023/10/22 04:19:38;;;;;;;;;;;;;;;13.93;49.57;99752.25;4967800;27;98229;-67
2023/10/22 04:22:05;;;;;;;;;;;;;;;13.93;49.59;99756.88;4964855;27;99110;-67
2023/10/22 04:24:31;;;;;;;;;;;;;;;13.93;49.76;99754.97;4985324;27;98395;-67
2023/10/22 04:26:57;;;;;;;;;;;;;;;13.93;49.65;99754.97;5003369;27;98317;-67
2023/10/22 04:29:25;;;;;;;;;;;;;;;13.93;49.50;99765.00;5001545;27;98437;-78
2023/10/22 04:31:51;;;;;;;;;;;;;;;13.92;49.64;99772.34;4997928;27;98440;-77
2023/10/22 04:34:18;;;;;;;;;;;;;;;13.92;49.63;99766.91;5002556;27;97961;-67
2023/10/22 04:36:45;;;;;;;;;;;;;;;13.92;49.50;99766.91;4996401;27;98126;-67
2023/10/22 04:39:12;;;;;;;;;;;;;;;13.91;49.70;99776.16;4981801;27;98081;-67
2023/10/22 04:41:38;;;;;;;;;;;;;;;13.91;49.80;99776.16;4995719;27;99883;-66
2023/10/22 04:44:05;;;;;;;;;;;;;;;13.92;49.88;99775.03;5002706;27;127382;-67
2023/10/22 04:46:31;;;;;;;;;;;;;;;13.92;49.93;99772.34;4987514;27;97951;-67
2023/10/22 04:48:58;;;;;;;;;;;;;;;13.91;49.67;99775.34;4967493;27;98317;-67
2023/10/22 04:51:25;;;;;;;;;;;;;;;13.90;49.58;99766.41;4980103;27;99835;-76
2023/10/22 04:53:51;;;;;;;;;;;;;;;13.91;49.60;99772.63;5017267;27;99242;-76
2023/10/22 04:56:18;;;;;;;;;;;;;;;13.90;49.66;99766.41;5000154;27;98087;-67
2023/10/22 04:58:44;;;;;;;;;;;;;;;13.89;49.96;99770.22;4981345;27;99416;-66
2023/10/22 05:01:11;;;;;;;;;;;;;;;13.89;49.83;99767.53;4983860;27;99206;-76
2023/10/22 05:03:38;;;;;;;;;;;;;;;13.89;49.99;99764.00;4987085;27;98130;-76
2023/10/22 05:06:06;;;;;;;;;;;;;;;13.89;49.79;99764.00;4984663;27;98200;-76
2023/10/22 05:08:34;;;;;;;;;;;;;;;13.89;49.57;99772.16;4986103;27;98556;-66
2023/10/22 05:11:04;;;;;;;;;;;;;;;13.88;49.58;99770.53;4968464;27;98042;-66
2023/10/22 05:13:30;;;;;;;;;;;;;;;13.88;49.92;99781.38;4994297;27;99729;-77
2023/10/22 05:15:57;;;;;;;;;;;;;;;13.87;49.81;99780.59;4969467;27;113975;-66
2023/10/22 05:18:26;;;;;;;;;;;;;;;13.87;49.62;99786.00;4997354;27;98199;-66
2023/10/22 05:20:53;;;;;;;;;;;;;;;13.87;50.01;99783.28;4970503;27;98063;-76
2023/10/22 05:23:19;;;;;;;;;;;;;;;13.86;49.69;99787.09;4981603;27;98263;-76
2023/10/22 05:25:45;;;;;;;;;;;;;;;13.86;50.04;99784.38;4985340;27;98414;-67
2023/10/22 05:28:11;;;;;;;;;;;;;;;13.86;49.67;99784.38;4978445;27;98119;-67
2023/10/22 05:30:38;;;;;;;;;;;;;;;13.86;49.57;99783.59;5009677;27;98339;-67
2023/10/22 05:33:04;;;;;;;;;;;;;;;13.85;49.60;99785.50;4993264;27;98844;-67
2023/10/22 05:35:34;;;;;;;;;;;;;;;13.84;50.04;99781.19;4966831;27;98021;-67
2023/10/22 05:38:02;;;;;;;;;;;;;;;13.84;50.11;99789.31;4991806;27;98365;-67
2023/10/22 05:40:28;;;;;;;;;;;;;;;13.85;49.95;99784.69;4969434;27;98708;-67
2023/10/22 05:42:54;;;;;;;;;;;;;;;13.85;49.71;99788.19;5001263;27;125333;-67
2023/10/22 05:45:20;;;;;;;;;;;;;;;13.84;50.02;99786.59;4996971;27;98134;-67
2023/10/22 05:47:46;;;;;;;;;;;;;;;13.84;49.71;99792.03;4985986;27;97946;-76
2023/10/22 05:50:13;;;;;;;;;;;;;;;13.84;50.07;99796.66;4981182;27;98958;-76
2023/10/22 05:52:40;;;;;;;;;;;;;;;13.84;49.64;99800.16;5012479;27;101507;-77
2023/10/22 05:55:07;;;;;;;;;;;;;;;13.83;49.85;99793.09;4996093;27;99661;-68
2023/10/22 05:57:33;;;;;;;;;;;;;;;13.84;49.70;99802.84;4999698;27;99148;-77
2023/10/22 06:00:00;;;;;;;;;;;;;;;13.84;50.04;99807.47;5001181;27;99203;-67
2023/10/22 06:02:27;;;;;;;;;;;;;;;13.85;49.69;99806.38;4986511;27;103972;-68
2023/10/22 06:04:54;;;;;;;;;;;;;;;13.85;49.85;99815.28;4996854;27;98165;-67
2023/10/22 06:07:20;;;;;;;;;;;;;;;13.85;49.70;99815.28;4992505;27;101497;-78
2023/10/22 06:09:45;;;;;;;;;;;;;;;13.85;50.03;99814.50;4980787;27;98554;-77
2023/10/22 06:12:12;;;;;;;;;;;;;;;13.87;49.99;99823.09;5006396;27;100100;-67
2023/10/22 06:14:38;;;;;;;;;;;;;;;13.88;49.66;99819.31;4976879;27;100098;-77
2023/10/22 06:17:04;;;;;;;;;;;;;;;13.89;49.83;99820.91;4993455;27;100015;-67
2023/10/22 06:19:30;;;;;;;;;;;;;;;13.89;49.69;99813.56;4991272;27;98747;-77
2023/10/22 06:21:57;;;;;;;;;;;;;;;13.90;49.83;99817.88;4992863;27;98958;-77
2023/10/22 06:24:24;;;;;;;;;;;;;;;13.91;49.55;99814.09;4992222;27;98181;-77
2023/10/22 06:26:50;;;;;;;;;;;;;;;13.92;50.05;99815.69;4973295;27;101848;-67
2023/10/22 06:29:17;;;;;;;;;;;;;;;13.92;49.89;99834.66;4973394;27;98155;-76
2023/10/22 06:31:47;;;;;;;;;;;;;;;13.93;50.00;99836.25;4988813;27;98171;-67
2023/10/22 06:34:14;;;;;;;;;;;;;;;13.93;49.84;99836.25;4980866;27;98105;-76
2023/10/22 06:36:40;;;;;;;;;;;;;;;13.94;49.91;99843.25;4993067;27;98564;-76
2023/10/22 06:39:06;;;;;;;;;;;;;;;13.95;50.06;99852.19;4964089;27;99605;-76
2023/10/22 06:41:33;;;;;;;;;;;;;;;13.96;49.84;99853.81;4997751;27;98370;-76
2023/10/22 06:43:59;;;;;;;;;;;;;;;13.97;49.73;99848.06;4970599;27;98829;-75
2023/10/22 06:46:25;;;;;;;;;;;;;;;13.98;49.68;99855.09;5000459;27;98060;-66
2023/10/22 06:48:51;;;;;;;;;;;;;;;14.00;50.04;99852.09;4962291;27;98383;-75
2023/10/22 06:51:18;;;;;;;;;;;;;;;14.00;49.91;99846.66;4987553;27;98254;-67
2023/10/22 06:53:48;;;;;;;;;;;;;;;14.02;49.78;99859.91;4977614;27;98185;-67
2023/10/22 06:56:15;;;;;;;;;;;;;;;14.03;49.93;99859.63;4973913;27;99465;-67
2023/10/22 06:58:44;;;;;;;;;;;;;;;14.05;49.69;99860.09;4992740;27;100125;-66
2023/10/22 07:01:12;;;;;;;;;;;;;;;14.07;49.93;99857.91;4976838;27;98503;-66
2023/10/22 07:03:42;;;;;;;;;;;;;;;14.11;49.55;99858.91;5004387;27;99553;-76
2023/10/22 07:06:08;;;;;;;;;;;;;;;14.16;49.46;99863.41;4981560;27;98038;-75
2023/10/22 07:08:35;;;;;;;;;;;;;;;14.20;49.82;99851.63;4984715;27;98218;-75
2023/10/22 07:11:01;;;;;;;;;;;;;;;14.25;49.52;99851.50;4983633;27;98448;-75
2023/10/22 07:13:30;;;;;;;;;;;;;;;14.29;49.83;99854.41;4980424;27;98308;-75
2023/10/22 07:15:57;;;;;;;;;;;;;;;14.33;49.62;99849.19;4978726;27;98209;-66
2023/10/22 07:18:23;;;;;;;;;;;;;;;14.37;49.70;99859.09;4983004;27;100068;-75
2023/10/22 07:20:50;;;;;;;;;;;;;;;14.41;49.38;99849.25;4994897;27;98373;-76
2023/10/22 07:23:17;;;;;;;;;;;;;;;14.45;49.62;99852.13;4981092;27;98807;-75
2023/10/22 07:25:43;;;;;;;;;;;;;;;14.48;49.31;99846.91;5012942;27;98311;-75
2023/10/22 07:28:15;;;;;;;;;;;;;;;14.52;49.67;99849.03;4983598;27;99211;-75
2023/10/22 07:30:49;;;;;;;;;;;;;;;14.54;49.33;99850.34;5010425;27;98680;-75
2023/10/22 07:33:19;;;;;;;;;;;;;;;14.59;49.73;99852.13;4996419;27;98483;-66
2023/10/22 07:35:55;;;;;;;;;;;;;;;14.62;49.14;99856.91;4995417;27;98685;-67
2023/10/22 07:38:22;;;;;;;;;;;;;;;14.65;49.61;99859.81;4982049;27;99082;-76
2023/10/22 07:40:50;;;;;;;;;;;;;;;14.69;49.58;99860.00;4976913;27;100045;-76
2023/10/22 07:43:17;;;;;;;;;;;;;;;14.73;49.15;99859.06;4995915;27;101773;-67
2023/10/22 07:45:43;;;;;;;;;;;;;;;14.79;49.48;99862.47;4963026;27;99762;-75
2023/10/22 07:48:09;;;;;;;;;;;;;;;14.84;49.41;99866.97;4954101;27;99473;-76
2023/10/22 07:50:36;;;;;;;;;;;;;;;14.90;49.54;99865.72;5000637;27;98073;-76
2023/10/22 07:53:02;;;;;;;;;;;;;;;14.95;49.29;99871.03;5010561;27;98070;-67
2023/10/22 07:55:30;;;;;;;;;;;;;;;15.02;48.96;99878.72;4994675;27;98705;-66
2023/10/22 07:57:56;;;;;;;;;;;;;;;15.09;49.09;99876.34;4982811;27;98877;-67
2023/10/22 08:00:22;;;;;;;;;;;;;;;15.17;49.23;99887.28;4962497;27;98117;-75
2023/10/22 08:02:49;;;;;;;;;;;;;;;15.22;49.24;99887.13;4979545;27;130540;-67
2023/10/22 08:05:16;;;;;;;;;;;;;;;15.31;49.20;99881.75;5008909;27;98772;-67
2023/10/22 08:07:42;;;;;;;;;;;;;;;15.42;48.92;99882.28;4993430;27;98469;-75
2023/10/22 08:10:09;;;;;;;;;;;;;;;15.54;49.04;99882.47;4996998;27;98324;-74
2023/10/22 08:12:35;;;;;;;;;;;;;;;15.68;48.82;99875.06;4977532;27;98245;-75
2023/10/22 08:15:02;;;;;;;;;;;;;;;15.84;48.59;99875.41;4995542;27;98217;-75
2023/10/22 08:17:28;;;;;;;;;;;;;;;16.03;48.53;99885.19;4963963;27;100007;-75
2023/10/22 08:19:55;;;;;;;;;;;;;;;16.11;48.60;99887.09;5001391;27;98402;-75
2023/10/22 08:22:21;;;;;;;;;;;;;;;16.22;48.64;99888.41;4995990;27;98483;-66
2023/10/22 08:24:48;;;;;;;;;;;;;;;16.35;48.37;99882.03;4980771;27;98004;-75
2023/10/22 08:27:15;;;;;;;;;;;;;;;16.50;48.49;99888.88;4999649;27;98295;-75
2023/10/22 08:29:41;;;;;;;;;;;;;;;16.59;48.51;99884.25;4981982;27;98065;-76
2023/10/22 08:32:11;;;;;;;;;;;;;;;16.64;48.53;99880.56;5011307;27;98067;-67
2023/10/22 08:34:38;;;;;;;;;;;;;;;16.70;48.54;99879.28;5011614;27;98526;-76
2023/10/22 08:37:04;;;;;;;;;;;;;;;16.75;48.50;99878.34;4993085;27;99900;-75
2023/10/22 08:39:31;;;;;;;;;;;;;;;16.80;48.45;99873.53;4979694;27;97957;-67
2023/10/22 08:42:11;;;;;;;;;;;;;;;16.85;48.54;99873.34;4960720;27;98341;-66
2023/10/22 08:44:51;;;;;;;;;;;;;;;16.89;48.56;99878.97;5001044;27;98468;-75
2023/10/22 08:47:21;;;;;;;;;;;;;;;16.95;48.50;99876.88;4996167;27;98401;-67
2023/10/22 08:49:51;;;;;;;;;;;;;;;16.99;48.61;99884.06;4993668;27;98230;-76
2023/10/22 08:52:21;;;;;;;;;;;;;;;17.04;48.61;99867.56;5007873;27;99146;-67
2023/10/22 08:54:47;;;;;;;;;;;;;;;17.08;48.62;99876.66;4965251;27;98404;-66
2023/10/22 08:57:15;;;;;;;;;;;;;;;17.13;48.47;99878.41;4997559;27;98984;-76
2023/10/22 08:59:41;;;;;;;;;;;;;;;17.21;48.35;99880.31;4963186;27;98341;-75
2023/10/22 09:02:11;;;;;;;;;;;;;;;17.31;48.49;99874.50;4977474;27;99469;-76
2023/10/22 09:04:38;;;;;;;;;;;;;;;17.45;48.33;99871.59;4977112;27;98959;-76
2023/10/22 09:07:05;;;;;;;;;;;;;;;17.63;48.20;99877.75;4979528;27;100088;-67
2023/10/22 09:09:38;;;;;;;;;;;;;;;17.77;47.99;99872.91;4980211;27;98768;-66
2023/10/22 09:12:08;;;;;;;;;;;;;;;17.95;47.85;99868.13;4997014;27;98629;-66
2023/10/22 09:14:35;;;;;;;;;;;;;;;18.12;47.83;99868.03;4978934;27;99671;-67
2023/10/22 09:17:20;;;;;;;;;;;;;;;18.24;47.72;99871.97;4983285;27;97929;-76
2023/10/22 09:19:51;;;;;;;;;;;;;;;18.34;47.72;99885.97;5009556;27;99526;-76
2023/10/22 09:22:26;;;;;;;;;;;;;;;18.44;47.81;99886.72;4999946;27;99479;-75
2023/10/22 09:24:56;;;;;;;;;;;;;;;18.59;47.74;99880.66;4982710;27;98120;-67
2023/10/22 09:27:31;;;;;;;;;;;;;;;18.74;47.70;99881.97;4973089;27;98357;-76
2023/10/22 09:30:00;;;;;;;;;;;;;;;18.89;47.65;99892.25;4980507;27;99884;-76
2023/10/22 09:32:30;;;;;;;;;;;;;;;19.07;47.47;99884.69;4979025;27;98195;-67
2023/10/22 09:35:13;;;;;;;;;;;;;;;19.59;47.08;99882.13;4980711;27;99735;-76
2023/10/22 09:37:58;;;;;;;;;;;;;;;20.03;46.61;99867.88;4996217;27;97910;-67
2023/10/22 09:40:25;;;;;;;;;;;;;;;21.11;45.62;99878.00;4995253;27;98753;-67
2023/10/22 09:42:51;;;;;;;;;;;;;;;23.69;42.96;99873.19;4997123;27;98784;-67
2023/10/22 09:45:21;;;;;;;;;;;;;;;26.72;40.18;99885.50;5007251;27;99641;-77
2023/10/22 09:47:50;;;;;;;;;;;;;;;28.51;39.60;99895.38;5009051;27;98817;-69
2023/10/22 09:50:19;;;;;;;;;;;;;;;29.14;39.98;99897.41;4979301;27;99944;-68
2023/10/22 09:52:46;;;;;;;;;;;;;;;29.22;40.42;99896.97;4962954;27;99266;-68
2023/10/22 09:55:13;;;;;;;;;;;;;;;30.35;39.67;99895.56;4977031;27;97951;-77
2023/10/22 09:57:40;;;;;;;;;;;;;;;31.44;39.27;99891.63;4980049;27;99587;-78
2023/10/22 10:00:15;;;;;;;;;;;;;;;31.86;39.66;99894.94;4981190;27;99462;-78
2023/10/22 10:02:41;;;;;;;;;;;;;;;30.98;41.15;99890.38;4983413;27;98073;-78
2023/10/22 10:05:11;;;;;;;;;;;;;;;30.55;41.86;99890.91;4981262;27;98177;-73
2023/10/22 10:07:40;;;;;;;;;;;;;;;30.23;42.26;99883.00;4979736;27;98757;-69
2023/10/22 10:10:07;;;;;;;;;;;;;;;30.18;42.30;99883.41;4980976;27;98516;-69
2023/10/22 10:12:36;;;;;;;;;;;;;;;29.98;42.80;99886.00;4962431;27;99811;-69
2023/10/22 10:15:03;;;;;;;;;;;;;;;29.88;42.96;99889.69;4975963;27;98380;-78
2023/10/22 10:17:30;;;;;;;;;;;;;;;31.56;40.81;99887.47;4996813;27;99506;-78
2023/10/22 10:20:25;;;;;;;;;;;;;;;33.29;39.59;99889.13;4990337;27;98917;-79
2023/10/22 10:23:08;;;;;;;;;;;;;;;34.39;38.97;99888.25;4997415;27;98963;-69
2023/10/22 10:25:35;;;;;;;;;;;;;;;35.63;38.35;99883.56;5004793;27;98542;-70
2023/10/22 10:28:05;;;;;;;;;;;;;;;35.95;38.64;99883.69;4958630;27;98383;-68
2023/10/22 10:30:32;;;;;;;;;;;;;;;34.41;40.50;99864.19;4998189;27;99061;-77
2023/10/22 10:32:58;;;;;;;;;;;;;;;33.81;41.38;99855.50;4978858;27;98874;-77
2023/10/22 10:35:26;;;;;;;;;;;;;;;33.79;41.37;99857.94;4973493;27;98065;-69
2023/10/22 10:38:14;;;;;;;;;;;;;;;32.94;42.55;99855.31;4996134;27;98381;-76
2023/10/22 10:41:06;;;;;;;;;;;;;;;32.70;42.27;99851.84;4998391;27;98635;-68
2023/10/22 10:44:06;;;;;;;;;;;;;;;33.05;41.87;99857.81;4974510;27;99481;-68
2023/10/22 10:46:33;;;;;;;;;;;;;;;33.37;41.51;99860.63;5000168;27;98180;-76
2023/10/22 10:48:59;;;;;;;;;;;;;;;33.79;41.10;99857.16;4996399;27;100838;-68
2023/10/22 10:51:26;;;;;;;;;;;;;;;33.91;41.18;99857.19;4982274;27;100080;-77
2023/10/22 10:54:02;;;;;;;;;;;;;;;33.84;41.41;99854.63;4939390;27;101990;-68
2023/10/22 10:56:50;;;;;;;;;;;;;;;34.04;41.32;99848.13;4992234;27;100635;-77
2023/10/22 10:59:31;;;;;;;;;;;;;;;34.09;41.64;99851.16;4998019;27;97927;-77
2023/10/22 11:02:01;;;;;;;;;;;;;;;34.31;41.77;99848.53;4998416;27;98527;-68
2023/10/22 11:04:32;;;;;;;;;;;;;;;34.26;41.79;99851.84;5003322;27;98432;-69
2023/10/22 11:06:58;;;;;;;;;;;;;;;34.42;41.52;99843.38;4982311;27;98366;-77
2023/10/22 11:09:26;;;;;;;;;;;;;;;34.27;41.80;99855.44;4987624;27;98716;-68
2023/10/22 11:11:56;;;;;;;;;;;;;;;34.07;42.17;99852.81;5001556;27;99222;-77
2023/10/22 11:14:22;;;;;;;;;;;;;;;33.63;43.02;99844.00;4993869;27;98439;-77
2023/10/22 11:16:54;;;;;;;;;;;;;;;33.18;43.58;99839.16;4992195;27;107276;-68
2023/10/22 11:19:24;;;;;;;;;;;;;;;32.75;44.17;99837.38;4974314;27;99331;-68
2023/10/22 11:21:51;;;;;;;;;;;;;;;32.51;43.86;99836.72;4968011;27;98356;-68
2023/10/22 11:24:18;;;;;;;;;;;;;;;32.38;44.05;99839.31;5009426;27;98273;-76
2023/10/22 11:26:47;;;;;;;;;;;;;;;32.15;44.53;99840.22;4981016;27;98769;-76
2023/10/22 11:29:15;;;;;;;;;;;;;;;31.91;44.40;99847.88;4978645;27;98029;-68
2023/10/22 11:31:56;;;;;;;;;;;;;;;31.71;44.70;99839.44;4991369;27;98274;-68
2023/10/22 11:34:22;;;;;;;;;;;;;;;31.54;44.66;99848.91;4976742;27;98134;-77
2023/10/22 11:36:48;;;;;;;;;;;;;;;31.41;44.90;99843.19;4999440;27;98952;-69
2023/10/22 11:39:21;;;;;;;;;;;;;;;31.24;45.23;99842.25;4982193;27;97945;-69
2023/10/22 11:41:51;;;;;;;;;;;;;;;31.00;45.22;99846.97;4989507;27;100135;-77
2023/10/22 11:44:34;;;;;;;;;;;;;;;30.70;45.24;99845.03;4997482;27;99870;-68
2023/10/22 11:47:27;;;;;;;;;;;;;;;30.35;45.74;99848.31;4981453;27;98066;-76
2023/10/22 11:49:54;;;;;;;;;;;;;;;29.91;45.88;99861.88;5004542;27;101666;-76
2023/10/22 11:52:37;;;;;;;;;;;;;;;29.48;46.40;99858.72;4978420;27;98284;-68
2023/10/22 11:55:05;;;;;;;;;;;;;;;28.90;46.87;99854.75;4996859;27;98049;-68
2023/10/22 11:57:33;;;;;;;;;;;;;;;28.38;46.96;99861.78;4997352;27;98783;-76
2023/10/22 12:00:00;;;;;;;;;;;;;;;27.92;47.55;99861.13;4979752;27;98249;-68
2023/10/22 12:02:26;;;;;;;;;;;;;;;27.43;47.83;99871.81;4982974;27;99907;-67
2023/10/22 12:04:55;;;;;;;;;;;;;;;27.05;47.86;99867.81;4999498;27;98174;-68
2023/10/22 12:07:21;;;;;;;;;;;;;;;26.66;48.20;99861.03;5000440;27;98503;-67
2023/10/22 12:09:48;;;;;;;;;;;;;;;26.34;48.17;99865.63;4983089;27;98692;-68
2023/10/22 12:12:14;;;;;;;;;;;;;;;26.05;48.32;99875.72;4995109;27;102675;-68
2023/10/22 12:14:42;;;;;;;;;;;;;;;25.71;48.49;99878.66;4997578;27;98361;-67
2023/10/22 12:17:08;;;;;;;;;;;;;;;25.44;48.65;99876.09;4999745;27;98775;-75
2023/10/22 12:19:36;;;;;;;;;;;;;;;25.16;48.69;99879.38;4980705;27;98000;-67
2023/10/22 12:22:02;;;;;;;;;;;;;;;25.00;48.71;99880.78;4995864;27;98379;-75
2023/10/22 12:24:29;;;;;;;;;;;;;;;24.85;48.54;99882.59;4999080;27;98089;-68
2023/10/22 12:26:55;;;;;;;;;;;;;;;24.49;48.84;99885.72;4975487;27;98430;-75
2023/10/22 12:29:21;;;;;;;;;;;;;;;24.31;48.76;99886.63;4993100;27;118447;-75
2023/10/22 12:31:47;;;;;;;;;;;;;;;24.07;49.05;99896.16;5009947;27;99645;-75
2023/10/22 12:34:13;;;;;;;;;;;;;;;23.84;48.89;99896.22;5011330;27;99043;-75
2023/10/22 12:36:40;;;;;;;;;;;;;;;23.60;48.94;99903.66;4980671;27;98388;-75
2023/10/22 12:39:10;;;;;;;;;;;;;;;23.36;49.23;99904.06;4964928;27;98297;-75
2023/10/22 12:41:39;;;;;;;;;;;;;;;23.16;49.13;99898.63;4992251;27;100158;-68
2023/10/22 12:44:06;;;;;;;;;;;;;;;22.92;49.49;99912.69;5009810;27;98336;-68
2023/10/22 12:46:33;;;;;;;;;;;;;;;22.71;49.60;99911.06;4994081;27;98103;-75
2023/10/22 12:49:00;;;;;;;;;;;;;;;22.58;49.35;99911.59;4981534;27;98185;-75
2023/10/22 12:51:26;;;;;;;;;;;;;;;22.51;49.28;99921.25;4996068;27;98212;-75